This is the latest recevied weather packets stored in our database for station/object W7SA-12. If no packets are shown the sender has not sent any weather packets the latest 10 day(s).
| Time | Temp. | Humidity | Pressure | Rain* | Wind** | Luminosity | Snow |
|---|---|---|---|---|---|---|---|
| 1777608852 | 18.33° C | 50% | 1013 hPa | 0 mm | - | - | - |
| 1777608766 | 17.78° C | 53% | 1013 hPa | 0 mm | - | - | - |
| 1777608466 | 18.33° C | 50% | 1013 hPa | 0 mm | - | - | - |
| 1777608444 | 18.89° C | 48% | 1012 hPa | 0 mm | - | - | - |
| 1777608264 | 19.44° C | 46% | 1012 hPa | 0 mm | - | - | - |
| 1777608168 | 18.89° C | 48% | 1012 hPa | 0 mm | - | - | - |
| 1777608008 | 19.44° C | 45% | 1012 hPa | 0 mm | - | - | - |
| 1777607866 | 19.44° C | 46% | 1012 hPa | 0 mm | - | - | - |
| 1777607679 | 19.44° C | 45% | 1012 hPa | 0 mm | - | - | - |
| 1777607566 | 19.44° C | 45% | 1012 hPa | 0 mm | - | - | - |
| 1777607266 | 19.44° C | 45% | 1012 hPa | 0 mm | - | - | - |
| 1777607253 | 18.89° C | 47% | 1012 hPa | 0 mm | - | - | - |
| 1777606966 | 18.89° C | 47% | 1012 hPa | 0 mm | - | - | - |
| 1777606958 | 18.33° C | 48% | 1012 hPa | 0 mm | - | - | - |
| 1777606669 | 18.33° C | 48% | 1012 hPa | 0 mm | - | - | - |
| 1777606613 | 18.89° C | 47% | 1012 hPa | 0 mm | - | - | - |
| 1777606429 | 18.89° C | 46% | 1012 hPa | 0 mm | - | - | - |
| 1777606366 | 18.89° C | 47% | 1012 hPa | 0 mm | - | - | - |
| 1777606147 | 18.89° C | 45% | 1012 hPa | 0 mm | - | - | - |
| 1777606066 | 18.89° C | 46% | 1012 hPa | 0 mm | - | - | - |
| 1777605769 | 18.89° C | 45% | 1012 hPa | 0 mm | - | - | - |
| 1777605766 | 18.89° C | 45% | 1012 hPa | 0 mm | - | - | - |
| 1777605467 | 20° C | 43% | 1012 hPa | 0 mm | - | - | - |
| 1777605466 | 18.89° C | 45% | 1012 hPa | 0 mm | - | - | - |
| 1777605248 | 19.44° C | 44% | 1011.1 hPa | 0 mm | - | - | - |
* Rain latest hour (hover to see other rain measurements)
** Current wind speed in m/s (hover to see current wind gust speed)